sensor_id;sensor_type;location;lat;lon;timestamp;pressure;altitude;pressure_sealevel;temperature;humidity
75521;BME280;64102;48.628;9.002;2024-01-30T00:01:12;97267.00;;;4.19;100.00
75521;BME280;64102;48.628;9.002;2024-01-30T00:03:37;97273.75;;;4.20;100.00
75521;BME280;64102;48.628;9.002;2024-01-30T00:06:03;97272.59;;;4.09;100.00
75521;BME280;64102;48.628;9.002;2024-01-30T00:08:29;97266.59;;;4.10;100.00
75521;BME280;64102;48.628;9.002;2024-01-30T00:10:54;97270.03;;;4.09;100.00
75521;BME280;64102;48.628;9.002;2024-01-30T00:13:19;97268.47;;;4.06;100.00
75521;BME280;64102;48.628;9.002;2024-01-30T00:15:45;97267.75;;;4.21;100.00
75521;BME280;64102;48.628;9.002;2024-01-30T00:18:10;97259.03;;;4.25;100.00
75521;BME280;64102;48.628;9.002;2024-01-30T00:20:36;97266.44;;;4.31;100.00
75521;BME280;64102;48.628;9.002;2024-01-30T00:23:01;97265.31;;;4.37;100.00
75521;BME280;64102;48.628;9.002;2024-01-30T00:25:27;97264.75;;;4.49;100.00
75521;BME280;64102;48.628;9.002;2024-01-30T00:27:52;97265.09;;;4.41;100.00
75521;BME280;64102;48.628;9.002;2024-01-30T00:30:17;97267.09;;;4.35;100.00
75521;BME280;64102;48.628;9.002;2024-01-30T00:32:43;97262.78;;;4.54;100.00
75521;BME280;64102;48.628;9.002;2024-01-30T00:35:08;97267.31;;;4.66;100.00
75521;BME280;64102;48.628;9.002;2024-01-30T00:37:35;97264.09;;;4.63;100.00
75521;BME280;64102;48.628;9.002;2024-01-30T00:40:01;97262.56;;;4.59;100.00
75521;BME280;64102;48.628;9.002;2024-01-30T00:42:26;97264.25;;;4.60;100.00
75521;BME280;64102;48.628;9.002;2024-01-30T00:44:52;97265.34;;;4.54;100.00
75521;BME280;64102;48.628;9.002;2024-01-30T00:47:17;97261.06;;;4.55;100.00
75521;BME280;64102;48.628;9.002;2024-01-30T00:49:42;97263.63;;;4.55;100.00
75521;BME280;64102;48.628;9.002;2024-01-30T00:52:08;97266.47;;;4.48;100.00
75521;BME280;64102;48.628;9.002;2024-01-30T00:54:33;97260.00;;;4.41;100.00
75521;BME280;64102;48.628;9.002;2024-01-30T00:56:58;97254.78;;;4.43;100.00
75521;BME280;64102;48.628;9.002;2024-01-30T00:59:24;97258.59;;;4.34;100.00
75521;BME280;64102;48.628;9.002;2024-01-30T01:01:50;97256.53;;;4.42;100.00
75521;BME280;64102;48.628;9.002;2024-01-30T01:04:15;97257.91;;;4.49;100.00
75521;BME280;64102;48.628;9.002;2024-01-30T01:06:41;97253.84;;;4.63;100.00
75521;BME280;64102;48.628;9.002;2024-01-30T01:09:10;97264.09;;;4.80;100.00
75521;BME280;64102;48.628;9.002;2024-01-30T01:11:35;97259.13;;;4.77;100.00
75521;BME280;64102;48.628;9.002;2024-01-30T01:14:00;97259.66;;;4.66;100.00
75521;BME280;64102;48.628;9.002;2024-01-30T01:16:26;97261.34;;;4.48;100.00
75521;BME280;64102;48.628;9.002;2024-01-30T01:18:51;97263.25;;;4.26;100.00
75521;BME280;64102;48.628;9.002;2024-01-30T01:21:16;97271.22;;;4.01;100.00
75521;BME280;64102;48.628;9.002;2024-01-30T01:23:42;97268.25;;;3.92;100.00
75521;BME280;64102;48.628;9.002;2024-01-30T01:26:08;97269.97;;;3.73;100.00
75521;BME280;64102;48.628;9.002;2024-01-30T01:28:35;97262.16;;;3.76;100.00
75521;BME280;64102;48.628;9.002;2024-01-30T01:31:00;97264.66;;;3.77;100.00
75521;BME280;64102;48.628;9.002;2024-01-30T01:33:31;97270.25;;;4.04;100.00
75521;BME280;64102;48.628;9.002;2024-01-30T01:35:58;97265.38;;;4.35;100.00
75521;BME280;64102;48.628;9.002;2024-01-30T01:38:23;97261.81;;;4.57;100.00
75521;BME280;64102;48.628;9.002;2024-01-30T01:40:48;97262.19;;;4.66;100.00
75521;BME280;64102;48.628;9.002;2024-01-30T01:43:14;97261.91;;;4.72;99.51
75521;BME280;64102;48.628;9.002;2024-01-30T01:45:39;97262.97;;;4.68;100.00
75521;BME280;64102;48.628;9.002;2024-01-30T01:48:05;97261.13;;;4.53;100.00
75521;BME280;64102;48.628;9.002;2024-01-30T01:50:30;97261.72;;;4.41;100.00
75521;BME280;64102;48.628;9.002;2024-01-30T01:52:56;97266.38;;;4.33;100.00
75521;BME280;64102;48.628;9.002;2024-01-30T01:55:22;97260.97;;;4.20;100.00
75521;BME280;64102;48.628;9.002;2024-01-30T01:57:49;97260.25;;;3.99;100.00
75521;BME280;64102;48.628;9.002;2024-01-30T02:00:15;97259.97;;;3.87;100.00
75521;BME280;64102;48.628;9.002;2024-01-30T02:02:41;97256.16;;;3.77;100.00
75521;BME280;64102;48.628;9.002;2024-01-30T02:05:08;97252.28;;;3.68;100.00
75521;BME280;64102;48.628;9.002;2024-01-30T02:07:33;97258.91;;;3.53;100.00
75521;BME280;64102;48.628;9.002;2024-01-30T02:09:59;97259.38;;;3.43;100.00
75521;BME280;64102;48.628;9.002;2024-01-30T02:12:24;97254.47;;;3.38;100.00
75521;BME280;64102;48.628;9.002;2024-01-30T02:14:50;97256.38;;;3.33;100.00
75521;BME280;64102;48.628;9.002;2024-01-30T02:17:15;97256.00;;;3.22;100.00
75521;BME280;64102;48.628;9.002;2024-01-30T02:19:41;97255.38;;;3.17;100.00
75521;BME280;64102;48.628;9.002;2024-01-30T02:22:07;97254.75;;;3.12;100.00
75521;BME280;64102;48.628;9.002;2024-01-30T02:24:32;97262.84;;;3.01;100.00
75521;BME280;64102;48.628;9.002;2024-01-30T02:26:58;97264.81;;;2.95;100.00
75521;BME280;64102;48.628;9.002;2024-01-30T02:29:23;97265.81;;;2.91;100.00
75521;BME280;64102;48.628;9.002;2024-01-30T02:31:49;97268.50;;;2.88;100.00
75521;BME280;64102;48.628;9.002;2024-01-30T02:34:14;97263.22;;;2.92;100.00
75521;BME280;64102;48.628;9.002;2024-01-30T02:36:43;97265.84;;;3.11;100.00
75521;BME280;64102;48.628;9.002;2024-01-30T02:39:09;97262.69;;;3.45;100.00
75521;BME280;64102;48.628;9.002;2024-01-30T02:41:35;97260.81;;;3.30;100.00
75521;BME280;64102;48.628;9.002;2024-01-30T02:44:01;97260.09;;;3.06;100.00
75521;BME280;64102;48.628;9.002;2024-01-30T02:46:26;97262.97;;;2.98;100.00
75521;BME280;64102;48.628;9.002;2024-01-30T02:48:51;97258.81;;;2.96;100.00
75521;BME280;64102;48.628;9.002;2024-01-30T02:51:17;97263.66;;;2.82;100.00
75521;BME280;64102;48.628;9.002;2024-01-30T02:53:42;97259.66;;;2.76;100.00
75521;BME280;64102;48.628;9.002;2024-01-30T02:56:07;97258.91;;;2.72;100.00
75521;BME280;64102;48.628;9.002;2024-01-30T02:58:35;97263.41;;;2.67;100.00
75521;BME280;64102;48.628;9.002;2024-01-30T03:01:01;97258.19;;;2.70;100.00
75521;BME280;64102;48.628;9.002;2024-01-30T03:03:27;97256.69;;;2.65;100.00
75521;BME280;64102;48.628;9.002;2024-01-30T03:05:52;97261.13;;;2.60;100.00
75521;BME280;64102;48.628;9.002;2024-01-30T03:08:17;97266.31;;;2.37;100.00
75521;BME280;64102;48.628;9.002;2024-01-30T03:10:43;97255.72;;;2.25;100.00
75521;BME280;64102;48.628;9.002;2024-01-30T03:13:08;97259.41;;;2.18;100.00
75521;BME280;64102;48.628;9.002;2024-01-30T03:15:33;97267.38;;;2.09;100.00
75521;BME280;64102;48.628;9.002;2024-01-30T03:17:58;97259.09;;;2.04;100.00
75521;BME280;64102;48.628;9.002;2024-01-30T03:20:24;97260.16;;;1.99;100.00
75521;BME280;64102;48.628;9.002;2024-01-30T03:22:49;97258.56;;;1.96;100.00
75521;BME280;64102;48.628;9.002;2024-01-30T03:25:14;97265.25;;;1.99;100.00
75521;BME280;64102;48.628;9.002;2024-01-30T03:27:40;97256.91;;;1.95;100.00
75521;BME280;64102;48.628;9.002;2024-01-30T03:30:06;97260.03;;;2.02;100.00
75521;BME280;64102;48.628;9.002;2024-01-30T03:32:31;97262.31;;;2.09;100.00
75521;BME280;64102;48.628;9.002;2024-01-30T03:34:56;97260.84;;;2.02;100.00
75521;BME280;64102;48.628;9.002;2024-01-30T03:37:23;97253.28;;;2.01;100.00
75521;BME280;64102;48.628;9.002;2024-01-30T03:39:48;97262.06;;;1.92;100.00
75521;BME280;64102;48.628;9.002;2024-01-30T03:42:14;97262.31;;;1.86;100.00
75521;BME280;64102;48.628;9.002;2024-01-30T03:44:39;97253.84;;;1.86;100.00
75521;BME280;64102;48.628;9.002;2024-01-30T03:47:04;97253.81;;;1.87;100.00
75521;BME280;64102;48.628;9.002;2024-01-30T03:49:30;97253.91;;;1.84;100.00
75521;BME280;64102;48.628;9.002;2024-01-30T03:51:55;97258.06;;;1.87;100.00
75521;BME280;64102;48.628;9.002;2024-01-30T03:54:20;97247.56;;;1.72;100.00
75521;BME280;64102;48.628;9.002;2024-01-30T03:56:46;97264.31;;;1.55;100.00
75521;BME280;64102;48.628;9.002;2024-01-30T03:59:11;97261.22;;;1.47;100.00
75521;BME280;64102;48.628;9.002;2024-01-30T04:01:37;97260.59;;;1.40;100.00
75521;BME280;64102;48.628;9.002;2024-01-30T04:04:02;97261.97;;;1.25;100.00
75521;BME280;64102;48.628;9.002;2024-01-30T04:06:27;97259.69;;;1.18;100.00
75521;BME280;64102;48.628;9.002;2024-01-30T04:08:53;97259.16;;;1.08;100.00
75521;BME280;64102;48.628;9.002;2024-01-30T04:11:18;97259.44;;;1.01;100.00
75521;BME280;64102;48.628;9.002;2024-01-30T04:13:45;97255.53;;;0.90;100.00
75521;BME280;64102;48.628;9.002;2024-01-30T04:16:19;97254.97;;;0.82;100.00
75521;BME280;64102;48.628;9.002;2024-01-30T04:18:46;97259.06;;;0.62;100.00
75521;BME280;64102;48.628;9.002;2024-01-30T04:21:11;97254.47;;;0.45;100.00
75521;BME280;64102;48.628;9.002;2024-01-30T04:23:36;97260.94;;;0.29;100.00
75521;BME280;64102;48.628;9.002;2024-01-30T04:26:02;97252.91;;;0.15;100.00
75521;BME280;64102;48.628;9.002;2024-01-30T04:28:28;97253.38;;;-0.01;100.00
75521;BME280;64102;48.628;9.002;2024-01-30T04:30:54;97251.75;;;-0.03;100.00
75521;BME280;64102;48.628;9.002;2024-01-30T04:33:19;97252.81;;;-0.10;100.00
75521;BME280;64102;48.628;9.002;2024-01-30T04:35:44;97260.19;;;-0.03;100.00
75521;BME280;64102;48.628;9.002;2024-01-30T04:38:10;97251.72;;;-0.02;100.00
75521;BME280;64102;48.628;9.002;2024-01-30T04:40:35;97253.13;;;0.09;100.00
75521;BME280;64102;48.628;9.002;2024-01-30T04:43:00;97264.44;;;0.25;100.00
75521;BME280;64102;48.628;9.002;2024-01-30T04:45:25;97255.84;;;0.29;100.00
75521;BME280;64102;48.628;9.002;2024-01-30T04:47:51;97258.25;;;0.33;100.00
75521;BME280;64102;48.628;9.002;2024-01-30T04:50:16;97257.38;;;0.34;100.00
75521;BME280;64102;48.628;9.002;2024-01-30T04:52:42;97257.13;;;0.42;100.00
75521;BME280;64102;48.628;9.002;2024-01-30T04:55:07;97253.81;;;0.40;100.00
75521;BME280;64102;48.628;9.002;2024-01-30T04:57:32;97258.09;;;0.38;100.00
75521;BME280;64102;48.628;9.002;2024-01-30T04:59:59;97264.19;;;0.32;100.00
75521;BME280;64102;48.628;9.002;2024-01-30T05:02:24;97265.22;;;0.27;100.00
75521;BME280;64102;48.628;9.002;2024-01-30T05:04:49;97264.72;;;0.16;100.00
75521;BME280;64102;48.628;9.002;2024-01-30T05:07:15;97262.50;;;0.05;100.00
75521;BME280;64102;48.628;9.002;2024-01-30T05:09:40;97264.06;;;-0.19;100.00
75521;BME280;64102;48.628;9.002;2024-01-30T05:12:06;97271.22;;;-0.31;100.00
75521;BME280;64102;48.628;9.002;2024-01-30T05:14:32;97264.06;;;-0.48;100.00
75521;BME280;64102;48.628;9.002;2024-01-30T05:16:57;97271.16;;;-0.61;100.00
75521;BME280;64102;48.628;9.002;2024-01-30T05:19:22;97263.34;;;-0.53;100.00
75521;BME280;64102;48.628;9.002;2024-01-30T05:21:49;97275.25;;;-0.55;100.00
75521;BME280;64102;48.628;9.002;2024-01-30T05:24:14;97276.13;;;-0.56;100.00
75521;BME280;64102;48.628;9.002;2024-01-30T05:26:39;97274.41;;;-0.56;100.00
75521;BME280;64102;48.628;9.002;2024-01-30T05:29:05;97272.75;;;-0.57;100.00
75521;BME280;64102;48.628;9.002;2024-01-30T05:31:31;97271.13;;;-0.59;100.00
75521;BME280;64102;48.628;9.002;2024-01-30T05:33:56;97270.28;;;-0.58;100.00
75521;BME280;64102;48.628;9.002;2024-01-30T05:36:22;97271.06;;;-0.58;100.00
75521;BME280;64102;48.628;9.002;2024-01-30T05:38:47;97273.84;;;-0.67;100.00
75521;BME280;64102;48.628;9.002;2024-01-30T05:41:12;97276.63;;;-0.76;100.00
75521;BME280;64102;48.628;9.002;2024-01-30T05:43:38;97278.44;;;-0.79;100.00
75521;BME280;64102;48.628;9.002;2024-01-30T05:46:03;97268.75;;;-0.65;100.00
75521;BME280;64102;48.628;9.002;2024-01-30T05:48:29;97268.00;;;-0.67;100.00
75521;BME280;64102;48.628;9.002;2024-01-30T05:50:54;97275.66;;;-0.70;100.00
75521;BME280;64102;48.628;9.002;2024-01-30T05:53:20;97281.56;;;-0.70;100.00
75521;BME280;64102;48.628;9.002;2024-01-30T05:55:45;97282.22;;;-0.63;100.00
75521;BME280;64102;48.628;9.002;2024-01-30T05:58:11;97281.41;;;-0.64;100.00
75521;BME280;64102;48.628;9.002;2024-01-30T06:00:36;97289.03;;;-0.65;100.00
75521;BME280;64102;48.628;9.002;2024-01-30T06:03:02;97286.66;;;-0.71;100.00
75521;BME280;64102;48.628;9.002;2024-01-30T06:05:27;97279.75;;;-0.66;100.00
75521;BME280;64102;48.628;9.002;2024-01-30T06:07:53;97290.81;;;-0.67;100.00
75521;BME280;64102;48.628;9.002;2024-01-30T06:10:18;97287.56;;;-0.72;100.00
75521;BME280;64102;48.628;9.002;2024-01-30T06:12:44;97284.28;;;-0.45;100.00
75521;BME280;64102;48.628;9.002;2024-01-30T06:15:09;97281.41;;;0.23;100.00
75521;BME280;64102;48.628;9.002;2024-01-30T06:17:35;97282.22;;;0.77;100.00
75521;BME280;64102;48.628;9.002;2024-01-30T06:20:00;97278.97;;;1.71;100.00
75521;BME280;64102;48.628;9.002;2024-01-30T06:22:26;97284.56;;;1.58;100.00
75521;BME280;64102;48.628;9.002;2024-01-30T06:24:51;97281.25;;;1.31;100.00
75521;BME280;64102;48.628;9.002;2024-01-30T06:27:16;97289.38;;;0.93;100.00
75521;BME280;64102;48.628;9.002;2024-01-30T06:29:43;97290.25;;;0.65;100.00
75521;BME280;64102;48.628;9.002;2024-01-30T06:32:08;97282.78;;;0.34;100.00
75521;BME280;64102;48.628;9.002;2024-01-30T06:34:34;97283.47;;;0.12;100.00
75521;BME280;64102;48.628;9.002;2024-01-30T06:36:59;97285.75;;;-0.09;100.00
75521;BME280;64102;48.628;9.002;2024-01-30T06:39:26;97286.28;;;-0.27;100.00
75521;BME280;64102;48.628;9.002;2024-01-30T06:41:51;97285.75;;;-0.38;100.00
75521;BME280;64102;48.628;9.002;2024-01-30T06:44:17;97277.28;;;-0.37;100.00
75521;BME280;64102;48.628;9.002;2024-01-30T06:46:42;97283.06;;;-0.32;100.00
75521;BME280;64102;48.628;9.002;2024-01-30T06:49:07;97294.72;;;-0.26;100.00
75521;BME280;64102;48.628;9.002;2024-01-30T06:51:33;97289.47;;;-0.20;100.00
75521;BME280;64102;48.628;9.002;2024-01-30T06:53:58;97286.28;;;0.03;100.00
75521;BME280;64102;48.628;9.002;2024-01-30T06:56:23;97282.22;;;0.25;100.00
75521;BME280;64102;48.628;9.002;2024-01-30T06:58:52;97290.38;;;0.34;100.00
75521;BME280;64102;48.628;9.002;2024-01-30T07:01:17;97285.03;;;0.43;100.00
75521;BME280;64102;48.628;9.002;2024-01-30T07:03:43;97291.00;;;0.41;100.00
75521;BME280;64102;48.628;9.002;2024-01-30T07:06:09;97291.16;;;0.36;100.00
75521;BME280;64102;48.628;9.002;2024-01-30T07:08:36;97286.91;;;0.63;100.00
75521;BME280;64102;48.628;9.002;2024-01-30T07:11:02;97297.44;;;0.79;100.00
75521;BME280;64102;48.628;9.002;2024-01-30T07:13:27;97302.94;;;0.92;100.00
75521;BME280;64102;48.628;9.002;2024-01-30T07:15:53;97307.84;;;0.98;100.00
75521;BME280;64102;48.628;9.002;2024-01-30T07:18:19;97311.38;;;1.18;100.00
75521;BME280;64102;48.628;9.002;2024-01-30T07:20:44;97307.16;;;1.65;100.00
75521;BME280;64102;48.628;9.002;2024-01-30T07:23:13;97307.06;;;2.37;100.00
75521;BME280;64102;48.628;9.002;2024-01-30T07:25:41;97303.91;;;2.74;100.00
75521;BME280;64102;48.628;9.002;2024-01-30T07:28:07;97299.75;;;3.13;100.00
75521;BME280;64102;48.628;9.002;2024-01-30T07:30:35;97300.66;;;3.32;100.00
75521;BME280;64102;48.628;9.002;2024-01-30T07:33:00;97298.47;;;3.82;100.00
75521;BME280;64102;48.628;9.002;2024-01-30T07:35:25;97292.41;;;4.03;100.00
75521;BME280;64102;48.628;9.002;2024-01-30T07:37:51;97296.34;;;4.11;99.62
75521;BME280;64102;48.628;9.002;2024-01-30T07:40:17;97293.50;;;4.17;99.94
75521;BME280;64102;48.628;9.002;2024-01-30T07:42:42;97293.22;;;4.41;98.57
75521;BME280;64102;48.628;9.002;2024-01-30T07:45:08;97292.88;;;4.66;95.43
75521;BME280;64102;48.628;9.002;2024-01-30T07:47:33;97294.78;;;4.80;93.54
75521;BME280;64102;48.628;9.002;2024-01-30T07:49:59;97295.47;;;4.83;92.87
75521;BME280;64102;48.628;9.002;2024-01-30T07:52:24;97305.91;;;4.96;89.71
75521;BME280;64102;48.628;9.002;2024-01-30T07:54:50;97311.56;;;5.37;86.60
75521;BME280;64102;48.628;9.002;2024-01-30T07:57:16;97297.78;;;5.57;83.06
75521;BME280;64102;48.628;9.002;2024-01-30T07:59:42;97306.41;;;5.54;85.47
75521;BME280;64102;48.628;9.002;2024-01-30T08:02:09;97307.25;;;5.55;84.34
75521;BME280;64102;48.628;9.002;2024-01-30T08:04:34;97315.06;;;5.69;83.05
75521;BME280;64102;48.628;9.002;2024-01-30T08:06:59;97311.84;;;5.81;80.39
75521;BME280;64102;48.628;9.002;2024-01-30T08:09:25;97307.66;;;6.13;78.98
75521;BME280;64102;48.628;9.002;2024-01-30T08:11:50;97306.72;;;6.61;76.34
75521;BME280;64102;48.628;9.002;2024-01-30T08:14:15;97311.28;;;6.87;73.60
75521;BME280;64102;48.628;9.002;2024-01-30T08:16:41;97316.06;;;7.23;71.85
75521;BME280;64102;48.628;9.002;2024-01-30T08:19:06;97303.19;;;7.53;69.59
75521;BME280;64102;48.628;9.002;2024-01-30T08:21:31;97298.03;;;7.39;69.83
75521;BME280;64102;48.628;9.002;2024-01-30T08:24:04;97296.56;;;7.49;70.39
75521;BME280;64102;48.628;9.002;2024-01-30T08:26:31;97298.78;;;7.97;66.52
75521;BME280;64102;48.628;9.002;2024-01-30T08:28:56;97299.56;;;8.26;64.51
75521;BME280;64102;48.628;9.002;2024-01-30T08:31:22;97299.88;;;8.36;63.04
75521;BME280;64102;48.628;9.002;2024-01-30T08:33:47;97306.13;;;8.32;62.22
75521;BME280;64102;48.628;9.002;2024-01-30T08:36:12;97296.22;;;7.97;62.59
75521;BME280;64102;48.628;9.002;2024-01-30T08:38:38;97294.91;;;7.48;65.00
75521;BME280;64102;48.628;9.002;2024-01-30T08:41:03;97299.69;;;7.40;66.33
75521;BME280;64102;48.628;9.002;2024-01-30T08:43:28;97301.34;;;7.41;67.83
75521;BME280;64102;48.628;9.002;2024-01-30T08:45:54;97300.78;;;7.36;66.65
75521;BME280;64102;48.628;9.002;2024-01-30T08:48:19;97296.09;;;7.42;68.30
75521;BME280;64102;48.628;9.002;2024-01-30T08:50:44;97304.59;;;7.29;68.83
75521;BME280;64102;48.628;9.002;2024-01-30T08:53:10;97304.00;;;7.09;69.66
75521;BME280;64102;48.628;9.002;2024-01-30T08:55:35;97304.28;;;7.05;70.85
75521;BME280;64102;48.628;9.002;2024-01-30T08:58:00;97300.84;;;7.34;69.21
75521;BME280;64102;48.628;9.002;2024-01-30T09:00:26;97311.06;;;7.50;68.65
75521;BME280;64102;48.628;9.002;2024-01-30T09:02:51;97310.66;;;7.42;68.38
75521;BME280;64102;48.628;9.002;2024-01-30T09:05:16;97306.22;;;7.74;66.73
75521;BME280;64102;48.628;9.002;2024-01-30T09:07:42;97306.09;;;8.18;63.09
75521;BME280;64102;48.628;9.002;2024-01-30T09:10:07;97311.38;;;8.84;59.48
75521;BME280;64102;48.628;9.002;2024-01-30T09:12:32;97316.88;;;9.19;58.48
75521;BME280;64102;48.628;9.002;2024-01-30T09:14:58;97323.09;;;9.54;55.04
75521;BME280;64102;48.628;9.002;2024-01-30T09:17:23;97314.25;;;10.21;53.06
75521;BME280;64102;48.628;9.002;2024-01-30T09:19:49;97318.22;;;10.74;52.60
75521;BME280;64102;48.628;9.002;2024-01-30T09:22:14;97314.16;;;10.47;51.34
75521;BME280;64102;48.628;9.002;2024-01-30T09:24:40;97317.31;;;9.88;52.73
75521;BME280;64102;48.628;9.002;2024-01-30T09:27:05;97315.69;;;9.50;53.06
75521;BME280;64102;48.628;9.002;2024-01-30T09:29:31;97321.13;;;9.83;53.48
75521;BME280;64102;48.628;9.002;2024-01-30T09:31:58;97326.91;;;9.86;52.54
75521;BME280;64102;48.628;9.002;2024-01-30T09:34:23;97325.56;;;10.19;52.16
75521;BME280;64102;48.628;9.002;2024-01-30T09:36:48;97319.94;;;10.50;50.91
75521;BME280;64102;48.628;9.002;2024-01-30T09:39:14;97317.38;;;10.74;50.38
75521;BME280;64102;48.628;9.002;2024-01-30T09:42:05;97322.59;;;10.85;50.29
75521;BME280;64102;48.628;9.002;2024-01-30T09:44:35;97326.16;;;10.48;50.26
75521;BME280;64102;48.628;9.002;2024-01-30T09:47:01;97329.91;;;10.06;51.33
75521;BME280;64102;48.628;9.002;2024-01-30T09:49:34;97329.47;;;9.86;51.69
75521;BME280;64102;48.628;9.002;2024-01-30T09:52:01;97332.38;;;9.69;52.53
75521;BME280;64102;48.628;9.002;2024-01-30T09:54:29;97330.22;;;9.63;52.13
75521;BME280;64102;48.628;9.002;2024-01-30T09:56:55;97329.78;;;9.69;52.30
75521;BME280;64102;48.628;9.002;2024-01-30T09:59:20;97338.56;;;9.79;52.79
75521;BME280;64102;48.628;9.002;2024-01-30T10:01:46;97335.06;;;9.80;52.45
75521;BME280;64102;48.628;9.002;2024-01-30T10:04:11;97347.03;;;9.81;52.80
75521;BME280;64102;48.628;9.002;2024-01-30T10:06:37;97335.91;;;9.94;51.80
75521;BME280;64102;48.628;9.002;2024-01-30T10:09:03;97336.50;;;9.97;51.71
75521;BME280;64102;48.628;9.002;2024-01-30T10:11:29;97335.81;;;9.95;51.57
75521;BME280;64102;48.628;9.002;2024-01-30T10:13:55;97337.34;;;9.98;51.78
75521;BME280;64102;48.628;9.002;2024-01-30T10:16:20;97339.00;;;9.99;52.08
75521;BME280;64102;48.628;9.002;2024-01-30T10:18:46;97334.44;;;10.02;51.54
75521;BME280;64102;48.628;9.002;2024-01-30T10:21:12;97331.03;;;10.02;51.75
75521;BME280;64102;48.628;9.002;2024-01-30T10:23:38;97329.28;;;10.02;52.12
75521;BME280;64102;48.628;9.002;2024-01-30T10:26:07;97340.13;;;10.20;52.68
75521;BME280;64102;48.628;9.002;2024-01-30T10:28:33;97330.72;;;10.31;51.64
75521;BME280;64102;48.628;9.002;2024-01-30T10:31:02;97334.97;;;10.20;51.89
75521;BME280;64102;48.628;9.002;2024-01-30T10:33:31;97326.59;;;10.29;51.64
75521;BME280;64102;48.628;9.002;2024-01-30T10:36:00;97326.88;;;10.37;50.98
75521;BME280;64102;48.628;9.002;2024-01-30T10:38:29;97323.63;;;10.59;50.47
75521;BME280;64102;48.628;9.002;2024-01-30T10:40:57;97322.66;;;10.72;49.59
75521;BME280;64102;48.628;9.002;2024-01-30T10:43:22;97327.56;;;10.88;49.39
75521;BME280;64102;48.628;9.002;2024-01-30T10:45:52;97320.66;;;11.00;48.57
75521;BME280;64102;48.628;9.002;2024-01-30T10:48:19;97321.56;;;11.11;49.32
75521;BME280;64102;48.628;9.002;2024-01-30T10:50:49;97322.56;;;11.33;48.31
75521;BME280;64102;48.628;9.002;2024-01-30T10:53:16;97316.50;;;11.10;47.80
75521;BME280;64102;48.628;9.002;2024-01-30T10:55:43;97314.91;;;11.20;48.12
75521;BME280;64102;48.628;9.002;2024-01-30T10:58:08;97316.50;;;11.10;47.86
75521;BME280;64102;48.628;9.002;2024-01-30T11:00:36;97314.25;;;11.05;49.06
75521;BME280;64102;48.628;9.002;2024-01-30T11:03:03;97317.91;;;11.14;48.23
75521;BME280;64102;48.628;9.002;2024-01-30T11:05:29;97315.13;;;10.93;48.04
75521;BME280;64102;48.628;9.002;2024-01-30T11:07:54;97311.75;;;11.04;48.63
75521;BME280;64102;48.628;9.002;2024-01-30T11:10:19;97311.25;;;11.22;47.55
75521;BME280;64102;48.628;9.002;2024-01-30T11:12:46;97314.41;;;11.15;47.72
75521;BME280;64102;48.628;9.002;2024-01-30T11:15:18;97308.75;;;11.10;48.33
75521;BME280;64102;48.628;9.002;2024-01-30T11:17:51;97312.25;;;11.09;47.68
75521;BME280;64102;48.628;9.002;2024-01-30T11:20:27;97306.84;;;11.01;48.26
75521;BME280;64102;48.628;9.002;2024-01-30T11:22:54;97310.09;;;11.03;49.38
75521;BME280;64102;48.628;9.002;2024-01-30T11:25:22;97313.69;;;11.13;49.76
75521;BME280;64102;48.628;9.002;2024-01-30T11:27:50;97321.50;;;11.35;48.49
75521;BME280;64102;48.628;9.002;2024-01-30T11:30:26;97313.34;;;11.17;48.07
75521;BME280;64102;48.628;9.002;2024-01-30T11:33:05;97306.66;;;11.15;47.78
75521;BME280;64102;48.628;9.002;2024-01-30T11:35:44;97313.75;;;11.24;48.03
75521;BME280;64102;48.628;9.002;2024-01-30T11:38:14;97304.50;;;11.09;48.21
75521;BME280;64102;48.628;9.002;2024-01-30T11:40:40;97307.34;;;11.17;47.86
75521;BME280;64102;48.628;9.002;2024-01-30T11:43:07;97307.69;;;11.12;47.78
75521;BME280;64102;48.628;9.002;2024-01-30T11:45:33;97306.59;;;11.04;48.01
75521;BME280;64102;48.628;9.002;2024-01-30T11:47:59;97304.41;;;11.10;48.74
75521;BME280;64102;48.628;9.002;2024-01-30T11:50:31;97305.16;;;11.23;48.36
75521;BME280;64102;48.628;9.002;2024-01-30T11:52:58;97293.31;;;11.32;48.02
75521;BME280;64102;48.628;9.002;2024-01-30T11:55:24;97302.84;;;11.43;48.61
75521;BME280;64102;48.628;9.002;2024-01-30T11:57:49;97296.19;;;11.62;48.76
75521;BME280;64102;48.628;9.002;2024-01-30T12:00:16;97292.72;;;11.75;47.52
75521;BME280;64102;48.628;9.002;2024-01-30T12:02:42;97291.28;;;11.59;47.69
75521;BME280;64102;48.628;9.002;2024-01-30T12:05:08;97294.28;;;11.42;48.22
75521;BME280;64102;48.628;9.002;2024-01-30T12:07:34;97283.72;;;11.45;48.57
75521;BME280;64102;48.628;9.002;2024-01-30T12:10:00;97282.53;;;11.38;48.38
75521;BME280;64102;48.628;9.002;2024-01-30T12:12:26;97277.28;;;11.51;48.19
75521;BME280;64102;48.628;9.002;2024-01-30T12:14:52;97281.63;;;11.50;48.19
75521;BME280;64102;48.628;9.002;2024-01-30T12:17:34;97276.66;;;11.47;46.96
75521;BME280;64102;48.628;9.002;2024-01-30T12:20:10;97275.81;;;11.82;47.24
75521;BME280;64102;48.628;9.002;2024-01-30T12:22:42;97262.75;;;11.94;46.81
75521;BME280;64102;48.628;9.002;2024-01-30T12:25:09;97259.44;;;11.92;46.59
75521;BME280;64102;48.628;9.002;2024-01-30T12:27:36;97266.13;;;12.39;46.19
75521;BME280;64102;48.628;9.002;2024-01-30T12:30:05;97262.31;;;12.54;45.62
75521;BME280;64102;48.628;9.002;2024-01-30T12:32:30;97267.47;;;12.66;45.86
75521;BME280;64102;48.628;9.002;2024-01-30T12:34:56;97265.94;;;12.95;44.96
75521;BME280;64102;48.628;9.002;2024-01-30T12:37:22;97274.06;;;13.33;44.38
75521;BME280;64102;48.628;9.002;2024-01-30T12:39:50;97265.56;;;13.52;43.72
75521;BME280;64102;48.628;9.002;2024-01-30T12:42:16;97261.03;;;13.75;42.12
75521;BME280;64102;48.628;9.002;2024-01-30T12:44:41;97267.97;;;13.65;42.77
75521;BME280;64102;48.628;9.002;2024-01-30T12:47:09;97270.44;;;13.45;42.93
75521;BME280;64102;48.628;9.002;2024-01-30T12:49:35;97271.94;;;13.69;43.09
75521;BME280;64102;48.628;9.002;2024-01-30T12:52:00;97270.91;;;13.81;42.88
75521;BME280;64102;48.628;9.002;2024-01-30T12:54:25;97258.94;;;14.29;41.37